Terminal Aerodrome Forecast
Issued by NWS Portland, ME

Home | Current Version | Previous Version | Text Only | Print | Product List | Glossary On
Versions: 1 2 3 4 5 6 7 8 9 10 11 12 13 14 15 16 17 18 19 20 21 22 23 24 25
000
FTUS41 KGYX 180520
TAFPWM
TAF
KPWM 180520Z 1806/1906 32004KT P6SM VCSH FEW025 BKN040
     FM180900 30010KT 4SM -RASN BR OVC025
     FM181700 31010G17KT P6SM BKN040
     FM190300 31008KT P6SM OVC100=

USA.gov is the U.S. government's official web portal to all federal, state and local government web resources and services.